sensor_id;sensor_type;location;lat;lon;timestamp;temperature;humidity
55036;DHT22;40936;53.008;6.556;2022-12-20T00:01:09;12.60;99.90
55036;DHT22;40936;53.008;6.556;2022-12-20T00:03:36;13.40;99.90
55036;DHT22;40936;53.008;6.556;2022-12-20T00:06:02;12.70;99.90
55036;DHT22;40936;53.008;6.556;2022-12-20T00:08:28;12.90;99.90
55036;DHT22;40936;53.008;6.556;2022-12-20T00:10:54;12.90;99.90
55036;DHT22;40936;53.008;6.556;2022-12-20T00:13:19;12.90;99.90
55036;DHT22;40936;53.008;6.556;2022-12-20T00:15:45;14.30;99.90
55036;DHT22;40936;53.008;6.556;2022-12-20T00:18:11;12.60;99.90
55036;DHT22;40936;53.008;6.556;2022-12-20T00:20:37;13.30;99.90
55036;DHT22;40936;53.008;6.556;2022-12-20T00:23:03;12.70;99.90
55036;DHT22;40936;53.008;6.556;2022-12-20T00:25:28;13.00;99.90
55036;DHT22;40936;53.008;6.556;2022-12-20T00:27:54;12.60;99.90
55036;DHT22;40936;53.008;6.556;2022-12-20T00:30:20;13.00;99.90
55036;DHT22;40936;53.008;6.556;2022-12-20T00:32:46;12.70;99.90
55036;DHT22;40936;53.008;6.556;2022-12-20T00:37:38;13.20;99.90
55036;DHT22;40936;53.008;6.556;2022-12-20T00:40:04;12.70;99.90
55036;DHT22;40936;53.008;6.556;2022-12-20T00:42:30;12.90;99.90
55036;DHT22;40936;53.008;6.556;2022-12-20T00:44:56;13.20;99.90
55036;DHT22;40936;53.008;6.556;2022-12-20T00:47:22;14.30;99.90
55036;DHT22;40936;53.008;6.556;2022-12-20T00:49:48;13.10;99.90
55036;DHT22;40936;53.008;6.556;2022-12-20T00:52:14;13.10;99.90
55036;DHT22;40936;53.008;6.556;2022-12-20T00:54:39;12.90;99.90
55036;DHT22;40936;53.008;6.556;2022-12-20T00:57:05;12.80;99.90
55036;DHT22;40936;53.008;6.556;2022-12-20T00:59:32;13.40;99.90
55036;DHT22;40936;53.008;6.556;2022-12-20T01:01:58;13.20;99.90
55036;DHT22;40936;53.008;6.556;2022-12-20T01:04:24;12.90;99.90
55036;DHT22;40936;53.008;6.556;2022-12-20T01:11:42;13.20;99.90
55036;DHT22;40936;53.008;6.556;2022-12-20T01:14:14;13.20;99.90
55036;DHT22;40936;53.008;6.556;2022-12-20T01:16:45;13.10;99.90
55036;DHT22;40936;53.008;6.556;2022-12-20T01:19:13;13.00;99.90
55036;DHT22;40936;53.008;6.556;2022-12-20T01:21:40;13.10;99.90
55036;DHT22;40936;53.008;6.556;2022-12-20T01:24:14;11.80;99.90
55036;DHT22;40936;53.008;6.556;2022-12-20T01:26:41;13.00;99.90
55036;DHT22;40936;53.008;6.556;2022-12-20T01:29:07;13.20;99.90
55036;DHT22;40936;53.008;6.556;2022-12-20T01:31:33;13.10;99.90
55036;DHT22;40936;53.008;6.556;2022-12-20T01:33:59;12.80;99.90
55036;DHT22;40936;53.008;6.556;2022-12-20T01:36:31;12.20;99.90
55036;DHT22;40936;53.008;6.556;2022-12-20T01:39:05;13.00;99.90
55036;DHT22;40936;53.008;6.556;2022-12-20T01:41:35;13.10;99.90
55036;DHT22;40936;53.008;6.556;2022-12-20T01:46:43;13.00;99.90
55036;DHT22;40936;53.008;6.556;2022-12-20T01:51:57;14.30;99.90
55036;DHT22;40936;53.008;6.556;2022-12-20T01:54:29;12.90;99.90
55036;DHT22;40936;53.008;6.556;2022-12-20T01:57:02;13.20;99.90
55036;DHT22;40936;53.008;6.556;2022-12-20T01:59:34;12.70;99.90
55036;DHT22;40936;53.008;6.556;2022-12-20T02:02:05;11.40;99.90
55036;DHT22;40936;53.008;6.556;2022-12-20T02:04:32;13.10;99.90
55036;DHT22;40936;53.008;6.556;2022-12-20T02:06:58;13.10;99.90
55036;DHT22;40936;53.008;6.556;2022-12-20T02:09:25;13.90;99.90
55036;DHT22;40936;53.008;6.556;2022-12-20T02:14:53;13.10;99.90
55036;DHT22;40936;53.008;6.556;2022-12-20T02:29:09;12.80;99.90
55036;DHT22;40936;53.008;6.556;2022-12-20T02:31:43;12.80;99.90
55036;DHT22;40936;53.008;6.556;2022-12-20T02:34:11;12.70;99.90
55036;DHT22;40936;53.008;6.556;2022-12-20T02:36:38;12.70;99.90
55036;DHT22;40936;53.008;6.556;2022-12-20T02:39:04;13.90;99.90
55036;DHT22;40936;53.008;6.556;2022-12-20T02:41:36;12.60;99.90
55036;DHT22;40936;53.008;6.556;2022-12-20T02:44:08;12.70;99.90
55036;DHT22;40936;53.008;6.556;2022-12-20T02:46:54;12.50;99.90
55036;DHT22;40936;53.008;6.556;2022-12-20T02:49:24;12.40;47.40
55036;DHT22;40936;53.008;6.556;2022-12-20T02:51:51;12.50;1.00
55036;DHT22;40936;53.008;6.556;2022-12-20T02:54:19;12.40;1.00
55036;DHT22;40936;53.008;6.556;2022-12-20T02:57:21;12.40;1.00
55036;DHT22;40936;53.008;6.556;2022-12-20T03:00:05;12.40;99.90
55036;DHT22;40936;53.008;6.556;2022-12-20T03:02:33;12.70;99.90
55036;DHT22;40936;53.008;6.556;2022-12-20T03:05:21;12.90;99.90
55036;DHT22;40936;53.008;6.556;2022-12-20T03:07:50;12.50;99.90
55036;DHT22;40936;53.008;6.556;2022-12-20T03:10:19;12.80;99.90
55036;DHT22;40936;53.008;6.556;2022-12-20T03:12:45;12.60;99.90
55036;DHT22;40936;53.008;6.556;2022-12-20T03:15:11;11.80;99.90
55036;DHT22;40936;53.008;6.556;2022-12-20T03:17:39;12.80;99.90
55036;DHT22;40936;53.008;6.556;2022-12-20T03:20:06;12.60;99.90
55036;DHT22;40936;53.008;6.556;2022-12-20T03:22:33;13.20;99.90
55036;DHT22;40936;53.008;6.556;2022-12-20T03:24:59;13.10;99.90
55036;DHT22;40936;53.008;6.556;2022-12-20T03:27:25;12.70;99.90
55036;DHT22;40936;53.008;6.556;2022-12-20T03:29:53;13.00;99.90
55036;DHT22;40936;53.008;6.556;2022-12-20T03:32:19;12.60;99.90
55036;DHT22;40936;53.008;6.556;2022-12-20T03:34:45;12.70;99.90
55036;DHT22;40936;53.008;6.556;2022-12-20T03:37:11;12.90;99.90
55036;DHT22;40936;53.008;6.556;2022-12-20T03:39:36;13.30;99.90
55036;DHT22;40936;53.008;6.556;2022-12-20T03:42:02;13.10;99.90
55036;DHT22;40936;53.008;6.556;2022-12-20T03:44:30;13.10;99.90
55036;DHT22;40936;53.008;6.556;2022-12-20T03:46:56;13.40;99.90
55036;DHT22;40936;53.008;6.556;2022-12-20T03:49:22;13.10;99.90
55036;DHT22;40936;53.008;6.556;2022-12-20T03:51:47;13.10;99.90
55036;DHT22;40936;53.008;6.556;2022-12-20T03:54:16;12.90;99.90
55036;DHT22;40936;53.008;6.556;2022-12-20T03:56:42;14.80;99.90
55036;DHT22;40936;53.008;6.556;2022-12-20T03:59:07;13.10;99.90
55036;DHT22;40936;53.008;6.556;2022-12-20T04:01:35;13.20;99.90
55036;DHT22;40936;53.008;6.556;2022-12-20T04:04:03;13.20;99.90
55036;DHT22;40936;53.008;6.556;2022-12-20T04:06:30;13.30;99.90
55036;DHT22;40936;53.008;6.556;2022-12-20T04:08:58;13.30;99.90
55036;DHT22;40936;53.008;6.556;2022-12-20T04:11:23;13.50;99.90
55036;DHT22;40936;53.008;6.556;2022-12-20T04:13:51;13.40;99.90
55036;DHT22;40936;53.008;6.556;2022-12-20T04:16:20;12.90;99.90
55036;DHT22;40936;53.008;6.556;2022-12-20T04:18:46;13.20;99.90
55036;DHT22;40936;53.008;6.556;2022-12-20T04:21:12;13.10;99.90
55036;DHT22;40936;53.008;6.556;2022-12-20T04:23:40;13.60;99.90
55036;DHT22;40936;53.008;6.556;2022-12-20T04:26:08;13.00;99.90
55036;DHT22;40936;53.008;6.556;2022-12-20T04:28:34;13.20;99.90
55036;DHT22;40936;53.008;6.556;2022-12-20T04:31:00;13.20;99.90
55036;DHT22;40936;53.008;6.556;2022-12-20T04:33:27;13.40;99.90
55036;DHT22;40936;53.008;6.556;2022-12-20T04:35:53;13.40;99.90
55036;DHT22;40936;53.008;6.556;2022-12-20T04:38:20;13.00;99.90
55036;DHT22;40936;53.008;6.556;2022-12-20T04:40:51;13.30;99.90
55036;DHT22;40936;53.008;6.556;2022-12-20T04:45:46;13.30;99.90
55036;DHT22;40936;53.008;6.556;2022-12-20T04:48:12;13.70;99.90
55036;DHT22;40936;53.008;6.556;2022-12-20T04:50:38;13.20;99.90
55036;DHT22;40936;53.008;6.556;2022-12-20T04:53:04;12.70;99.90
55036;DHT22;40936;53.008;6.556;2022-12-20T04:55:49;13.60;99.90
55036;DHT22;40936;53.008;6.556;2022-12-20T05:00:41;13.90;99.90
55036;DHT22;40936;53.008;6.556;2022-12-20T05:03:07;13.40;99.90
55036;DHT22;40936;53.008;6.556;2022-12-20T05:05:33;14.00;99.90
55036;DHT22;40936;53.008;6.556;2022-12-20T05:07:58;13.50;99.90
55036;DHT22;40936;53.008;6.556;2022-12-20T05:10:27;13.80;99.90
55036;DHT22;40936;53.008;6.556;2022-12-20T05:12:52;14.20;99.90
55036;DHT22;40936;53.008;6.556;2022-12-20T05:15:18;14.00;99.90
55036;DHT22;40936;53.008;6.556;2022-12-20T05:17:44;14.10;99.90
55036;DHT22;40936;53.008;6.556;2022-12-20T05:20:10;14.30;99.90
55036;DHT22;40936;53.008;6.556;2022-12-20T05:22:36;14.10;99.90
55036;DHT22;40936;53.008;6.556;2022-12-20T05:25:20;14.10;99.90
55036;DHT22;40936;53.008;6.556;2022-12-20T05:28:04;13.60;99.90
55036;DHT22;40936;53.008;6.556;2022-12-20T05:30:30;14.00;99.90
55036;DHT22;40936;53.008;6.556;2022-12-20T05:32:56;13.60;99.90
55036;DHT22;40936;53.008;6.556;2022-12-20T05:35:22;14.10;99.90
55036;DHT22;40936;53.008;6.556;2022-12-20T05:37:47;14.00;99.90
55036;DHT22;40936;53.008;6.556;2022-12-20T05:40:13;14.10;99.90
55036;DHT22;40936;53.008;6.556;2022-12-20T05:42:40;14.10;99.90
55036;DHT22;40936;53.008;6.556;2022-12-20T05:45:06;13.50;99.90
55036;DHT22;40936;53.008;6.556;2022-12-20T05:47:32;13.80;99.90
55036;DHT22;40936;53.008;6.556;2022-12-20T05:50:02;14.10;99.90
55036;DHT22;40936;53.008;6.556;2022-12-20T05:52:28;13.90;99.90
55036;DHT22;40936;53.008;6.556;2022-12-20T05:54:54;14.00;99.90
55036;DHT22;40936;53.008;6.556;2022-12-20T05:57:21;13.60;99.90
55036;DHT22;40936;53.008;6.556;2022-12-20T05:59:46;13.60;99.90
55036;DHT22;40936;53.008;6.556;2022-12-20T06:02:12;14.00;99.90
55036;DHT22;40936;53.008;6.556;2022-12-20T06:04:38;13.60;99.90
55036;DHT22;40936;53.008;6.556;2022-12-20T06:07:04;13.70;99.90
55036;DHT22;40936;53.008;6.556;2022-12-20T06:09:31;13.90;99.90
55036;DHT22;40936;53.008;6.556;2022-12-20T06:11:57;13.60;99.90
55036;DHT22;40936;53.008;6.556;2022-12-20T06:14:24;13.80;99.90
55036;DHT22;40936;53.008;6.556;2022-12-20T06:16:50;13.90;99.90
55036;DHT22;40936;53.008;6.556;2022-12-20T06:19:16;13.90;99.90
55036;DHT22;40936;53.008;6.556;2022-12-20T06:21:41;14.60;99.90
55036;DHT22;40936;53.008;6.556;2022-12-20T06:24:07;13.60;99.90
55036;DHT22;40936;53.008;6.556;2022-12-20T06:26:33;13.70;99.90
55036;DHT22;40936;53.008;6.556;2022-12-20T06:29:03;13.70;99.90
55036;DHT22;40936;53.008;6.556;2022-12-20T06:31:32;13.50;99.90
55036;DHT22;40936;53.008;6.556;2022-12-20T06:33:58;13.70;99.90
55036;DHT22;40936;53.008;6.556;2022-12-20T06:36:23;13.80;99.90
55036;DHT22;40936;53.008;6.556;2022-12-20T06:38:49;13.70;99.90
55036;DHT22;40936;53.008;6.556;2022-12-20T06:41:15;13.60;99.90
55036;DHT22;40936;53.008;6.556;2022-12-20T06:43:41;13.60;99.90
55036;DHT22;40936;53.008;6.556;2022-12-20T06:46:06;13.90;99.90
55036;DHT22;40936;53.008;6.556;2022-12-20T06:48:32;13.70;99.90
55036;DHT22;40936;53.008;6.556;2022-12-20T06:50:58;13.60;99.90
55036;DHT22;40936;53.008;6.556;2022-12-20T06:53:24;13.60;99.90
55036;DHT22;40936;53.008;6.556;2022-12-20T06:55:50;14.30;99.90
55036;DHT22;40936;53.008;6.556;2022-12-20T06:58:17;14.30;99.90
55036;DHT22;40936;53.008;6.556;2022-12-20T07:00:43;13.70;99.90
55036;DHT22;40936;53.008;6.556;2022-12-20T07:03:08;14.10;99.90
55036;DHT22;40936;53.008;6.556;2022-12-20T07:05:34;14.60;99.90
55036;DHT22;40936;53.008;6.556;2022-12-20T07:08:00;15.40;99.90
55036;DHT22;40936;53.008;6.556;2022-12-20T07:10:27;14.00;99.90
55036;DHT22;40936;53.008;6.556;2022-12-20T07:12:53;14.20;99.90
55036;DHT22;40936;53.008;6.556;2022-12-20T07:15:19;14.40;99.90
55036;DHT22;40936;53.008;6.556;2022-12-20T07:17:46;14.60;99.90
55036;DHT22;40936;53.008;6.556;2022-12-20T07:20:12;14.00;99.90
55036;DHT22;40936;53.008;6.556;2022-12-20T07:22:38;14.30;99.90
55036;DHT22;40936;53.008;6.556;2022-12-20T07:25:04;14.70;99.90
55036;DHT22;40936;53.008;6.556;2022-12-20T07:27:30;14.00;99.90
55036;DHT22;40936;53.008;6.556;2022-12-20T07:29:55;13.90;99.90
55036;DHT22;40936;53.008;6.556;2022-12-20T07:32:21;14.80;99.90
55036;DHT22;40936;53.008;6.556;2022-12-20T07:34:47;14.10;99.90
55036;DHT22;40936;53.008;6.556;2022-12-20T07:37:13;14.00;99.90
55036;DHT22;40936;53.008;6.556;2022-12-20T07:39:38;14.40;99.90
55036;DHT22;40936;53.008;6.556;2022-12-20T07:42:06;14.20;99.90
55036;DHT22;40936;53.008;6.556;2022-12-20T07:44:34;14.60;99.90
55036;DHT22;40936;53.008;6.556;2022-12-20T07:47:00;14.00;99.90
55036;DHT22;40936;53.008;6.556;2022-12-20T07:49:25;14.60;99.90
55036;DHT22;40936;53.008;6.556;2022-12-20T07:51:56;14.90;99.90
55036;DHT22;40936;53.008;6.556;2022-12-20T07:54:30;14.10;99.90
55036;DHT22;40936;53.008;6.556;2022-12-20T07:57:05;14.90;99.90
55036;DHT22;40936;53.008;6.556;2022-12-20T07:59:39;14.10;99.90
55036;DHT22;40936;53.008;6.556;2022-12-20T08:02:09;14.80;99.90
55036;DHT22;40936;53.008;6.556;2022-12-20T08:04:37;14.20;99.90
55036;DHT22;40936;53.008;6.556;2022-12-20T08:07:03;14.20;99.90
55036;DHT22;40936;53.008;6.556;2022-12-20T08:09:31;14.80;99.90
55036;DHT22;40936;53.008;6.556;2022-12-20T08:11:59;14.10;99.90
55036;DHT22;40936;53.008;6.556;2022-12-20T08:14:25;14.20;99.90
55036;DHT22;40936;53.008;6.556;2022-12-20T08:16:52;13.90;99.90
55036;DHT22;40936;53.008;6.556;2022-12-20T08:19:18;14.40;99.90
55036;DHT22;40936;53.008;6.556;2022-12-20T08:21:44;14.00;99.90
55036;DHT22;40936;53.008;6.556;2022-12-20T08:24:09;17.00;99.90
55036;DHT22;40936;53.008;6.556;2022-12-20T08:26:39;14.20;99.90
55036;DHT22;40936;53.008;6.556;2022-12-20T08:29:05;14.70;99.90
55036;DHT22;40936;53.008;6.556;2022-12-20T08:31:30;14.10;99.90
55036;DHT22;40936;53.008;6.556;2022-12-20T08:33:56;14.80;99.90
55036;DHT22;40936;53.008;6.556;2022-12-20T08:36:22;14.50;99.90
55036;DHT22;40936;53.008;6.556;2022-12-20T08:38:48;14.40;99.90
55036;DHT22;40936;53.008;6.556;2022-12-20T08:41:14;14.00;99.90
55036;DHT22;40936;53.008;6.556;2022-12-20T08:43:41;14.10;99.90
55036;DHT22;40936;53.008;6.556;2022-12-20T08:46:10;14.10;99.90
55036;DHT22;40936;53.008;6.556;2022-12-20T08:48:37;14.10;99.90
55036;DHT22;40936;53.008;6.556;2022-12-20T08:51:06;14.00;99.90
55036;DHT22;40936;53.008;6.556;2022-12-20T08:53:32;14.00;99.90
55036;DHT22;40936;53.008;6.556;2022-12-20T08:56:07;14.90;99.90
55036;DHT22;40936;53.008;6.556;2022-12-20T08:58:34;14.70;99.90
55036;DHT22;40936;53.008;6.556;2022-12-20T09:01:02;14.70;99.90
55036;DHT22;40936;53.008;6.556;2022-12-20T09:03:29;15.30;99.90
55036;DHT22;40936;53.008;6.556;2022-12-20T09:05:57;12.60;99.90
55036;DHT22;40936;53.008;6.556;2022-12-20T09:08:22;14.20;99.90
55036;DHT22;40936;53.008;6.556;2022-12-20T09:10:48;14.70;99.90
55036;DHT22;40936;53.008;6.556;2022-12-20T09:13:14;14.10;99.90
55036;DHT22;40936;53.008;6.556;2022-12-20T09:15:40;14.30;99.90
55036;DHT22;40936;53.008;6.556;2022-12-20T09:18:07;15.60;99.90
55036;DHT22;40936;53.008;6.556;2022-12-20T09:20:33;16.10;99.90
55036;DHT22;40936;53.008;6.556;2022-12-20T09:22:59;14.20;99.90
55036;DHT22;40936;53.008;6.556;2022-12-20T09:25:26;14.90;99.90
55036;DHT22;40936;53.008;6.556;2022-12-20T09:27:52;14.70;99.90
55036;DHT22;40936;53.008;6.556;2022-12-20T09:30:19;14.10;99.90
55036;DHT22;40936;53.008;6.556;2022-12-20T09:32:45;14.70;99.90
55036;DHT22;40936;53.008;6.556;2022-12-20T09:35:10;14.00;99.90
55036;DHT22;40936;53.008;6.556;2022-12-20T09:37:36;14.10;99.90
55036;DHT22;40936;53.008;6.556;2022-12-20T09:40:02;14.20;99.90
55036;DHT22;40936;53.008;6.556;2022-12-20T09:42:29;14.20;99.90
55036;DHT22;40936;53.008;6.556;2022-12-20T09:45:05;14.80;99.90
55036;DHT22;40936;53.008;6.556;2022-12-20T09:47:34;14.60;99.90
55036;DHT22;40936;53.008;6.556;2022-12-20T09:50:00;14.20;99.90
55036;DHT22;40936;53.008;6.556;2022-12-20T09:57:44;14.50;99.90
55036;DHT22;40936;53.008;6.556;2022-12-20T10:00:14;14.60;99.90
55036;DHT22;40936;53.008;6.556;2022-12-20T10:02:41;14.70;99.90
55036;DHT22;40936;53.008;6.556;2022-12-20T10:05:14;14.40;99.90
55036;DHT22;40936;53.008;6.556;2022-12-20T10:10:44;14.60;99.90
55036;DHT22;40936;53.008;6.556;2022-12-20T10:24:40;14.00;99.90
55036;DHT22;40936;53.008;6.556;2022-12-20T10:27:16;14.70;99.90
55036;DHT22;40936;53.008;6.556;2022-12-20T10:29:43;14.10;99.90
55036;DHT22;40936;53.008;6.556;2022-12-20T10:32:15;14.10;99.90
55036;DHT22;40936;53.008;6.556;2022-12-20T10:34:56;13.90;99.90
55036;DHT22;40936;53.008;6.556;2022-12-20T10:37:23;14.00;99.90
55036;DHT22;40936;53.008;6.556;2022-12-20T10:39:51;14.30;99.90
55036;DHT22;40936;53.008;6.556;2022-12-20T10:42:36;16.00;99.90
55036;DHT22;40936;53.008;6.556;2022-12-20T10:45:24;15.30;99.90
55036;DHT22;40936;53.008;6.556;2022-12-20T10:47:58;14.60;99.90
55036;DHT22;40936;53.008;6.556;2022-12-20T10:50:24;14.60;99.90
55036;DHT22;40936;53.008;6.556;2022-12-20T10:53:16;14.20;99.90
55036;DHT22;40936;53.008;6.556;2022-12-20T10:55:43;14.70;99.90
55036;DHT22;40936;53.008;6.556;2022-12-20T11:00:43;14.50;99.90
55036;DHT22;40936;53.008;6.556;2022-12-20T11:03:17;14.70;99.90
55036;DHT22;40936;53.008;6.556;2022-12-20T11:08:22;13.90;99.90
55036;DHT22;40936;53.008;6.556;2022-12-20T11:10:49;14.00;99.90
55036;DHT22;40936;53.008;6.556;2022-12-20T11:13:24;14.30;99.90
55036;DHT22;40936;53.008;6.556;2022-12-20T11:15:55;14.00;99.90
55036;DHT22;40936;53.008;6.556;2022-12-20T11:18:49;14.10;99.90
55036;DHT22;40936;53.008;6.556;2022-12-20T11:21:38;14.60;99.90
55036;DHT22;40936;53.008;6.556;2022-12-20T11:24:15;14.90;99.90
55036;DHT22;40936;53.008;6.556;2022-12-20T11:27:12;14.10;99.90
55036;DHT22;40936;53.008;6.556;2022-12-20T11:32:25;15.00;99.90
55036;DHT22;40936;53.008;6.556;2022-12-20T11:38:03;14.20;99.90
55036;DHT22;40936;53.008;6.556;2022-12-20T11:40:35;15.00;99.90
55036;DHT22;40936;53.008;6.556;2022-12-20T11:46:43;14.20;99.90
55036;DHT22;40936;53.008;6.556;2022-12-20T11:52:34;15.00;99.90
55036;DHT22;40936;53.008;6.556;2022-12-20T11:58:11;14.60;99.90
55036;DHT22;40936;53.008;6.556;2022-12-20T12:00:40;14.90;99.90
55036;DHT22;40936;53.008;6.556;2022-12-20T12:03:39;14.20;99.90
55036;DHT22;40936;53.008;6.556;2022-12-20T12:06:06;15.00;99.90
55036;DHT22;40936;53.008;6.556;2022-12-20T12:08:51;14.50;99.90
55036;DHT22;40936;53.008;6.556;2022-12-20T12:11:24;14.30;99.90
55036;DHT22;40936;53.008;6.556;2022-12-20T12:13:52;14.40;99.90
55036;DHT22;40936;53.008;6.556;2022-12-20T12:16:34;15.60;99.90
55036;DHT22;40936;53.008;6.556;2022-12-20T12:19:01;15.10;99.90
55036;DHT22;40936;53.008;6.556;2022-12-20T12:21:34;15.10;99.90
55036;DHT22;40936;53.008;6.556;2022-12-20T12:26:40;14.60;99.90
55036;DHT22;40936;53.008;6.556;2022-12-20T12:29:12;15.20;99.90
55036;DHT22;40936;53.008;6.556;2022-12-20T12:32:03;14.90;99.90
55036;DHT22;40936;53.008;6.556;2022-12-20T12:34:59;15.10;99.90
55036;DHT22;40936;53.008;6.556;2022-12-20T12:40:22;14.50;99.90
55036;DHT22;40936;53.008;6.556;2022-12-20T12:45:45;17.30;99.90
55036;DHT22;40936;53.008;6.556;2022-12-20T12:48:14;15.50;99.90
55036;DHT22;40936;53.008;6.556;2022-12-20T12:50:48;15.50;99.90
55036;DHT22;40936;53.008;6.556;2022-12-20T12:53:31;15.20;99.90
55036;DHT22;40936;53.008;6.556;2022-12-20T12:56:38;15.60;99.90
55036;DHT22;40936;53.008;6.556;2022-12-20T13:01:46;15.00;99.90
55036;DHT22;40936;53.008;6.556;2022-12-20T13:11:55;15.00;99.90
55036;DHT22;40936;53.008;6.556;2022-12-20T13:21:46;14.80;99.90
55036;DHT22;40936;53.008;6.556;2022-12-20T13:24:39;15.60;99.90
55036;DHT22;40936;53.008;6.556;2022-12-20T13:27:14;15.50;99.90
55036;DHT22;40936;53.008;6.556;2022-12-20T13:40:42;14.80;99.90
55036;DHT22;40936;53.008;6.556;2022-12-20T13:45:48;15.80;99.90
55036;DHT22;40936;53.008;6.556;2022-12-20T13:48:18;14.90;99.90
55036;DHT22;40936;53.008;6.556;2022-12-20T13:50:49;15.90;99.90
55036;DHT22;40936;53.008;6.556;2022-12-20T13:53:25;15.70;99.90
55036;DHT22;40936;53.008;6.556;2022-12-20T13:55:54;17.10;99.90
55036;DHT22;40936;53.008;6.556;2022-12-20T13:58:27;15.00;99.90
55036;DHT22;40936;53.008;6.556;2022-12-20T14:01:04;15.50;99.90
55036;DHT22;40936;53.008;6.556;2022-12-20T14:03:31;14.50;99.90
55036;DHT22;40936;53.008;6.556;2022-12-20T14:06:02;15.90;99.90
55036;DHT22;40936;53.008;6.556;2022-12-20T14:08:32;14.80;99.90
55036;DHT22;40936;53.008;6.556;2022-12-20T14:13:56;15.10;99.90
55036;DHT22;40936;53.008;6.556;2022-12-20T14:16:24;15.30;99.90
55036;DHT22;40936;53.008;6.556;2022-12-20T14:19:00;15.30;99.90
55036;DHT22;40936;53.008;6.556;2022-12-20T14:21:28;15.60;99.90
55036;DHT22;40936;53.008;6.556;2022-12-20T14:23:56;14.90;99.90
55036;DHT22;40936;53.008;6.556;2022-12-20T14:26:25;15.30;99.90
55036;DHT22;40936;53.008;6.556;2022-12-20T14:28:59;14.90;99.90
55036;DHT22;40936;53.008;6.556;2022-12-20T14:34:14;15.10;99.90
55036;DHT22;40936;53.008;6.556;2022-12-20T14:36:42;15.20;99.90
55036;DHT22;40936;53.008;6.556;2022-12-20T14:39:27;15.00;99.90
55036;DHT22;40936;53.008;6.556;2022-12-20T14:42:20;14.90;99.90
55036;DHT22;40936;53.008;6.556;2022-12-20T14:44:46;15.70;99.90
55036;DHT22;40936;53.008;6.556;2022-12-20T14:47:21;16.00;99.90
55036;DHT22;40936;53.008;6.556;2022-12-20T14:49:54;15.50;99.90
55036;DHT22;40936;53.008;6.556;2022-12-20T14:52:33;15.90;99.90
55036;DHT22;40936;53.008;6.556;2022-12-20T14:55:18;15.90;99.90
55036;DHT22;40936;53.008;6.556;2022-12-20T14:57:51;16.00;99.90
55036;DHT22;40936;53.008;6.556;2022-12-20T15:10:36;15.20;99.90
55036;DHT22;40936;53.008;6.556;2022-12-20T15:13:02;14.90;99.90
55036;DHT22;40936;53.008;6.556;2022-12-20T15:15:28;15.80;99.90
55036;DHT22;40936;53.008;6.556;2022-12-20T15:17:53;15.80;99.90
55036;DHT22;40936;53.008;6.556;2022-12-20T15:20:19;14.90;99.90
55036;DHT22;40936;53.008;6.556;2022-12-20T15:22:45;15.10;99.90
55036;DHT22;40936;53.008;6.556;2022-12-20T15:25:16;15.40;99.90
55036;DHT22;40936;53.008;6.556;2022-12-20T15:27:43;15.40;99.90
55036;DHT22;40936;53.008;6.556;2022-12-20T15:30:12;15.40;99.90
55036;DHT22;40936;53.008;6.556;2022-12-20T15:32:38;15.40;99.90
55036;DHT22;40936;53.008;6.556;2022-12-20T15:35:10;16.00;99.90
55036;DHT22;40936;53.008;6.556;2022-12-20T15:37:37;15.50;99.90
55036;DHT22;40936;53.008;6.556;2022-12-20T15:40:03;15.50;99.90
55036;DHT22;40936;53.008;6.556;2022-12-20T15:42:28;15.70;99.90
55036;DHT22;40936;53.008;6.556;2022-12-20T15:44:54;16.00;99.90
55036;DHT22;40936;53.008;6.556;2022-12-20T15:47:20;15.00;99.90
55036;DHT22;40936;53.008;6.556;2022-12-20T15:49:46;15.40;99.90
55036;DHT22;40936;53.008;6.556;2022-12-20T15:52:18;15.00;99.90
55036;DHT22;40936;53.008;6.556;2022-12-20T15:54:45;15.00;99.90
55036;DHT22;40936;53.008;6.556;2022-12-20T15:57:12;15.90;99.90
55036;DHT22;40936;53.008;6.556;2022-12-20T15:59:39;16.00;99.90
55036;DHT22;40936;53.008;6.556;2022-12-20T16:02:24;15.10;99.90
55036;DHT22;40936;53.008;6.556;2022-12-20T16:04:51;16.00;99.90
55036;DHT22;40936;53.008;6.556;2022-12-20T16:07:17;15.30;99.90
55036;DHT22;40936;53.008;6.556;2022-12-20T16:09:42;16.00;99.90
55036;DHT22;40936;53.008;6.556;2022-12-20T16:12:13;16.00;99.90
55036;DHT22;40936;53.008;6.556;2022-12-20T16:14:40;15.10;99.90
55036;DHT22;40936;53.008;6.556;2022-12-20T16:17:11;14.90;99.90
55036;DHT22;40936;53.008;6.556;2022-12-20T16:19:38;15.00;99.90
55036;DHT22;40936;53.008;6.556;2022-12-20T16:22:04;15.90;99.90
55036;DHT22;40936;53.008;6.556;2022-12-20T16:24:30;15.00;99.90
55036;DHT22;40936;53.008;6.556;2022-12-20T16:26:56;15.80;99.90
55036;DHT22;40936;53.008;6.556;2022-12-20T16:29:21;15.10;99.90
55036;DHT22;40936;53.008;6.556;2022-12-20T16:31:47;15.50;99.90
55036;DHT22;40936;53.008;6.556;2022-12-20T16:34:16;15.50;99.90
55036;DHT22;40936;53.008;6.556;2022-12-20T16:36:42;15.00;99.90
55036;DHT22;40936;53.008;6.556;2022-12-20T16:39:09;15.30;99.90
55036;DHT22;40936;53.008;6.556;2022-12-20T16:41:35;15.50;99.90
55036;DHT22;40936;53.008;6.556;2022-12-20T16:44:02;14.90;99.90
55036;DHT22;40936;53.008;6.556;2022-12-20T16:46:30;15.00;99.90
55036;DHT22;40936;53.008;6.556;2022-12-20T16:48:57;16.00;99.90
55036;DHT22;40936;53.008;6.556;2022-12-20T16:51:43;15.40;99.90
55036;DHT22;40936;53.008;6.556;2022-12-20T16:54:20;16.00;99.90
55036;DHT22;40936;53.008;6.556;2022-12-20T16:56:47;16.00;99.90
55036;DHT22;40936;53.008;6.556;2022-12-20T16:59:16;16.00;99.90
55036;DHT22;40936;53.008;6.556;2022-12-20T17:01:43;15.00;99.90
55036;DHT22;40936;53.008;6.556;2022-12-20T17:04:13;15.50;99.90
55036;DHT22;40936;53.008;6.556;2022-12-20T17:06:40;16.00;99.90
55036;DHT22;40936;53.008;6.556;2022-12-20T17:09:06;16.00;99.90
55036;DHT22;40936;53.008;6.556;2022-12-20T17:11:32;15.20;99.90
55036;DHT22;40936;53.008;6.556;2022-12-20T17:13:58;15.80;99.90
55036;DHT22;40936;53.008;6.556;2022-12-20T17:16:25;15.00;99.90
55036;DHT22;40936;53.008;6.556;2022-12-20T17:18:53;15.10;99.90
55036;DHT22;40936;53.008;6.556;2022-12-20T17:21:41;15.90;99.90
55036;DHT22;40936;53.008;6.556;2022-12-20T17:24:17;15.00;99.90
55036;DHT22;40936;53.008;6.556;2022-12-20T17:26:43;15.20;99.90
55036;DHT22;40936;53.008;6.556;2022-12-20T17:29:09;15.30;99.90
55036;DHT22;40936;53.008;6.556;2022-12-20T17:31:40;15.10;99.90
55036;DHT22;40936;53.008;6.556;2022-12-20T17:34:19;16.00;99.90
55036;DHT22;40936;53.008;6.556;2022-12-20T17:36:45;15.00;99.90
55036;DHT22;40936;53.008;6.556;2022-12-20T17:39:12;15.50;99.90
55036;DHT22;40936;53.008;6.556;2022-12-20T17:41:38;16.00;99.90
55036;DHT22;40936;53.008;6.556;2022-12-20T17:44:05;15.40;99.90
55036;DHT22;40936;53.008;6.556;2022-12-20T17:46:31;15.00;99.90
55036;DHT22;40936;53.008;6.556;2022-12-20T17:48:57;15.10;99.90
55036;DHT22;40936;53.008;6.556;2022-12-20T17:51:25;15.40;99.90